Time,TemperatureF,DewpointF,PressureIn,WindDirection,WindDirectionDegrees,WindSpeedMPH,WindSpeedGustMPH,Humidity,HourlyPrecipIn,Conditions,Clouds,dailyrainin,SoftwareType,DateUTC
2013-06-14 00:22:00,77.0,40.0,-100.00,WSW,245,6.0,16.0,27,0.00,,,0.00,,2013-06-14 00:22:00,
2013-06-14 00:33:00,77.0,40.0,-100.00,WSW,245,6.0,16.0,27,0.00,,,0.00,,2013-06-14 00:33:00,
2013-06-14 00:43:00,77.0,40.0,-100.00,WSW,245,6.0,16.0,27,0.00,,,0.00,,2013-06-14 00:43:00,
2013-06-14 00:51:00,74.0,40.0,-100.00,WSW,249,7.0,16.0,29,0.00,,,0.00,,2013-06-14 00:51:00,
2013-06-14 01:11:00,74.0,40.0,-100.00,WSW,249,7.0,16.0,29,0.00,,,0.00,,2013-06-14 01:11:00,
2013-06-14 01:22:00,74.0,40.0,-100.00,WSW,249,7.0,16.0,29,0.00,,,0.00,,2013-06-14 01:22:00,
2013-06-14 01:32:00,74.0,40.0,-100.00,WSW,249,7.0,16.0,29,0.00,,,0.00,,2013-06-14 01:32:00,
2013-06-14 01:43:00,74.0,40.0,-100.00,WSW,249,7.0,16.0,29,0.00,,,0.00,,2013-06-14 01:43:00,
2013-06-14 01:51:00,64.0,33.0,-100.00,WNW,292,10.0,30.0,31,0.00,,,0.00,,2013-06-14 01:51:00,
2013-06-14 02:22:00,64.0,33.0,-100.00,WNW,292,10.0,30.0,31,0.00,,,0.00,,2013-06-14 02:22:00,
2013-06-14 02:32:00,64.0,33.0,-100.00,WNW,292,10.0,30.0,31,0.00,,,0.00,,2013-06-14 02:32:00,
2013-06-14 02:43:00,64.0,33.0,-100.00,WNW,292,10.0,30.0,31,0.00,,,0.00,,2013-06-14 02:43:00,
2013-06-14 02:51:00,55.0,34.0,-100.00,WSW,237,7.0,31.0,45,0.00,,,0.00,,2013-06-14 02:51:00,
2013-06-14 03:43:00,55.0,34.0,-100.00,WSW,237,7.0,31.0,45,0.00,,,0.00,,2013-06-14 03:43:00,
2013-06-14 03:51:00,50.0,36.0,-100.00,SW,234,14.0,26.0,58,0.00,,,0.00,,2013-06-14 03:51:00,
2013-06-14 04:12:00,50.0,36.0,-100.00,SW,234,14.0,26.0,58,0.00,,,0.00,,2013-06-14 04:12:00,
2013-06-14 04:22:00,50.0,36.0,-100.00,SW,234,14.0,26.0,58,0.00,,,0.00,,2013-06-14 04:22:00,
2013-06-14 04:33:00,50.0,36.0,-100.00,SW,234,14.0,26.0,58,0.00,,,0.00,,2013-06-14 04:33:00,
2013-06-14 04:43:00,50.0,36.0,-100.00,SW,234,14.0,26.0,58,0.00,,,0.00,,2013-06-14 04:43:00,
2013-06-14 04:51:00,46.0,40.0,-100.00,West,271,5.0,24.0,79,0.00,,,0.00,,2013-06-14 04:51:00,
2013-06-14 05:22:00,46.0,40.0,-100.00,West,271,5.0,24.0,79,0.00,,,0.00,,2013-06-14 05:22:00,
2013-06-14 05:33:00,46.0,40.0,-100.00,West,271,5.0,24.0,79,0.00,,,0.00,,2013-06-14 05:33:00,
2013-06-14 05:43:00,46.0,40.0,-100.00,West,271,5.0,24.0,79,0.00,,,0.00,,2013-06-14 05:43:00,
2013-06-14 05:51:00,46.0,39.0,-100.00,South,189,4.0,11.0,76,0.01,,,0.01,,2013-06-14 05:51:00,
2013-06-14 06:12:00,46.0,39.0,-100.00,South,189,4.0,11.0,76,0.01,,,0.01,,2013-06-14 06:12:00,
2013-06-14 06:22:00,46.0,39.0,-100.00,South,189,4.0,11.0,76,0.01,,,0.01,,2013-06-14 06:22:00,
2013-06-14 06:33:00,46.0,39.0,-100.00,South,189,4.0,11.0,76,0.01,,,0.01,,2013-06-14 06:33:00,
2013-06-14 06:43:00,46.0,39.0,-100.00,South,189,4.0,11.0,76,0.01,,,0.01,,2013-06-14 06:43:00,
2013-06-14 06:51:00,44.0,40.0,-100.00,East,98,1.0,8.0,85,0.00,,,0.01,,2013-06-14 06:51:00,
2013-06-14 07:22:00,44.0,40.0,-100.00,East,98,1.0,8.0,85,0.00,,,0.01,,2013-06-14 07:22:00,
2013-06-14 07:33:00,44.0,40.0,-100.00,East,98,1.0,8.0,85,0.00,,,0.01,,2013-06-14 07:33:00,
2013-06-14 07:43:00,44.0,40.0,-100.00,East,98,1.0,8.0,85,0.00,,,0.01,,2013-06-14 07:43:00,
2013-06-14 07:51:00,40.0,38.0,-100.00,SW,218,2.0,5.0,93,0.00,,,0.01,,2013-06-14 07:51:00,
2013-06-14 08:22:00,40.0,38.0,-100.00,SW,218,2.0,5.0,93,0.00,,,0.01,,2013-06-14 08:22:00,
2013-06-14 08:33:00,40.0,38.0,-100.00,SW,218,2.0,5.0,93,0.00,,,0.01,,2013-06-14 08:33:00,
2013-06-14 08:43:00,40.0,38.0,-100.00,SW,218,2.0,5.0,93,0.00,,,0.01,,2013-06-14 08:43:00,
2013-06-14 08:51:00,37.0,35.0,-100.00,SSW,202,1.0,4.0,94,0.00,,,0.01,,2013-06-14 08:51:00,
2013-06-14 09:22:00,37.0,35.0,-100.00,SSW,202,1.0,4.0,94,0.00,,,0.01,,2013-06-14 09:22:00,
2013-06-14 09:33:00,37.0,35.0,-100.00,SSW,202,1.0,4.0,94,0.00,,,0.01,,2013-06-14 09:33:00,
2013-06-14 09:43:00,37.0,35.0,-100.00,SSW,202,1.0,4.0,94,0.00,,,0.01,,2013-06-14 09:43:00,
2013-06-14 09:51:00,35.0,34.0,-100.00,SSE,167,2.0,5.0,97,0.00,,,0.01,,2013-06-14 09:51:00,
2013-06-14 10:22:00,35.0,34.0,-100.00,SSE,167,2.0,5.0,97,0.00,,,0.01,,2013-06-14 10:22:00,
2013-06-14 10:34:00,35.0,34.0,-100.00,SSE,167,2.0,5.0,97,0.00,,,0.01,,2013-06-14 10:34:00,
2013-06-14 10:43:00,35.0,34.0,-100.00,SSE,167,2.0,5.0,97,0.00,,,0.01,,2013-06-14 10:43:00,
2013-06-14 10:51:00,34.0,33.0,-100.00,West,281,1.0,5.0,97,0.00,,,0.01,,2013-06-14 10:51:00,
2013-06-14 11:22:00,34.0,33.0,-100.00,West,281,1.0,5.0,97,0.00,,,0.01,,2013-06-14 11:22:00,
2013-06-14 11:32:00,34.0,33.0,-100.00,West,281,1.0,5.0,97,0.00,,,0.01,,2013-06-14 11:32:00,
2013-06-14 11:43:00,34.0,33.0,-100.00,West,281,1.0,5.0,97,0.00,,,0.01,,2013-06-14 11:43:00,
2013-06-14 11:51:00,34.0,34.0,-100.00,South,184,3.0,9.0,98,0.00,,,0.01,,2013-06-14 11:51:00,
2013-06-14 12:22:00,34.0,34.0,-100.00,South,184,3.0,9.0,98,0.00,,,0.01,,2013-06-14 12:22:00,
2013-06-14 12:32:00,34.0,34.0,-100.00,South,184,3.0,9.0,98,0.00,,,0.01,,2013-06-14 12:32:00,
2013-06-14 12:43:00,34.0,34.0,-100.00,South,184,3.0,9.0,98,0.00,,,0.01,,2013-06-14 12:43:00,
2013-06-14 12:51:00,36.0,33.0,-100.00,East,79,6.0,15.0,90,0.00,,,0.01,,2013-06-14 12:51:00,
2013-06-14 13:22:00,36.0,33.0,-100.00,East,79,6.0,15.0,90,0.00,,,0.01,,2013-06-14 13:22:00,
2013-06-14 13:33:00,36.0,33.0,-100.00,East,79,6.0,15.0,90,0.00,,,0.01,,2013-06-14 13:33:00,
2013-06-14 13:43:00,36.0,33.0,-100.00,East,79,6.0,15.0,90,0.00,,,0.01,,2013-06-14 13:43:00,
2013-06-14 14:11:00,35.0,33.0,-100.00,WSW,258,2.0,13.0,94,0.00,,,0.01,,2013-06-14 14:11:00,
2013-06-14 14:22:00,35.0,33.0,-100.00,WSW,258,2.0,13.0,94,0.00,,,0.01,,2013-06-14 14:22:00,
2013-06-14 14:51:00,50.0,34.0,-100.00,West,267,5.0,10.0,54,-99.99,,,0.01,,2013-06-14 14:51:00,
2013-06-14 15:11:00,50.0,34.0,-100.00,West,267,5.0,10.0,54,-99.99,,,0.01,,2013-06-14 15:11:00,
2013-06-14 15:23:00,50.0,34.0,-100.00,West,267,5.0,10.0,54,-99.99,,,0.01,,2013-06-14 15:23:00,
2013-06-14 15:33:00,50.0,34.0,-100.00,West,267,5.0,10.0,54,-99.99,,,0.01,,2013-06-14 15:33:00,
2013-06-14 15:43:00,50.0,34.0,-100.00,West,267,5.0,10.0,54,-99.99,,,0.01,,2013-06-14 15:43:00,
2013-06-14 15:51:00,53.0,29.0,-100.00,West,269,6.0,18.0,40,0.00,,,0.01,,2013-06-14 15:51:00,
2013-06-14 16:22:00,53.0,29.0,-100.00,West,269,6.0,18.0,40,0.00,,,0.01,,2013-06-14 16:22:00,
2013-06-14 16:32:00,53.0,29.0,-100.00,West,269,6.0,18.0,40,0.00,,,0.01,,2013-06-14 16:32:00,
2013-06-14 16:43:00,53.0,29.0,-100.00,West,269,6.0,18.0,40,0.00,,,0.01,,2013-06-14 16:43:00,
2013-06-14 16:51:00,54.0,22.0,-100.00,WSW,240,12.0,17.0,28,0.00,,,0.01,,2013-06-14 16:51:00,
2013-06-14 17:11:00,54.0,22.0,-100.00,WSW,240,12.0,17.0,28,0.00,,,0.01,,2013-06-14 17:11:00,
2013-06-14 17:22:00,54.0,22.0,-100.00,WSW,240,12.0,17.0,28,0.00,,,0.01,,2013-06-14 17:22:00,
2013-06-14 17:34:00,54.0,22.0,-100.00,WSW,240,12.0,17.0,28,0.00,,,0.01,,2013-06-14 17:34:00,
2013-06-14 17:43:00,54.0,22.0,-100.00,WSW,240,12.0,17.0,28,0.00,,,0.01,,2013-06-14 17:43:00,
2013-06-14 17:51:00,56.0,23.0,-100.00,WSW,239,11.0,24.0,28,0.00,,,0.01,,2013-06-14 17:51:00,
2013-06-14 18:22:00,56.0,23.0,-100.00,WSW,239,11.0,24.0,28,0.00,,,0.01,,2013-06-14 18:22:00,
2013-06-14 18:32:00,56.0,23.0,-100.00,WSW,239,11.0,24.0,28,0.00,,,0.01,,2013-06-14 18:32:00,
2013-06-14 18:42:00,56.0,23.0,-100.00,WSW,239,11.0,24.0,28,0.00,,,0.01,,2013-06-14 18:42:00,
2013-06-14 18:51:00,58.0,24.0,-100.00,WNW,283,10.0,21.0,27,0.00,,,0.01,,2013-06-14 18:51:00,
2013-06-14 19:21:00,58.0,24.0,-100.00,WNW,283,10.0,21.0,27,0.00,,,0.01,,2013-06-14 19:21:00,
2013-06-14 19:32:00,58.0,24.0,-100.00,WNW,283,10.0,21.0,27,0.00,,,0.01,,2013-06-14 19:32:00,
2013-06-14 19:43:00,58.0,24.0,-100.00,WNW,283,10.0,21.0,27,0.00,,,0.01,,2013-06-14 19:43:00,
2013-06-14 19:51:00,60.0,22.0,-100.00,SW,236,11.0,21.0,23,0.00,,,0.01,,2013-06-14 19:51:00,
2013-06-14 20:11:00,60.0,22.0,-100.00,SW,236,11.0,21.0,23,0.00,,,0.01,,2013-06-14 20:11:00,
2013-06-14 20:22:00,60.0,22.0,-100.00,SW,236,11.0,21.0,23,0.00,,,0.01,,2013-06-14 20:22:00,
2013-06-14 20:33:00,60.0,22.0,-100.00,SW,236,11.0,21.0,23,0.00,,,0.01,,2013-06-14 20:33:00,
2013-06-14 20:43:00,60.0,22.0,-100.00,SW,236,11.0,21.0,23,0.00,,,0.01,,2013-06-14 20:43:00,
2013-06-14 20:51:00,62.0,22.0,-100.00,West,269,11.0,26.0,21,0.00,,,0.01,,2013-06-14 20:51:00,
2013-06-14 21:11:00,62.0,22.0,-100.00,West,269,11.0,26.0,21,0.00,,,0.01,,2013-06-14 21:11:00,
2013-06-14 21:22:00,62.0,22.0,-100.00,West,269,11.0,26.0,21,0.00,,,0.01,,2013-06-14 21:22:00,
2013-06-14 21:34:00,62.0,22.0,-100.00,West,269,11.0,26.0,21,0.00,,,0.01,,2013-06-14 21:34:00,
2013-06-14 21:42:00,62.0,22.0,-100.00,West,269,11.0,26.0,21,0.00,,,0.01,,2013-06-14 21:42:00,
2013-06-14 21:51:00,63.0,24.0,-100.00,SW,235,11.0,22.0,22,0.00,,,0.01,,2013-06-14 21:51:00,
2013-06-14 22:22:00,63.0,24.0,-100.00,SW,235,11.0,22.0,22,0.00,,,0.01,,2013-06-14 22:22:00,
2013-06-14 22:33:00,63.0,24.0,-100.00,SW,235,11.0,22.0,22,0.00,,,0.01,,2013-06-14 22:33:00,
2013-06-14 22:43:00,63.0,24.0,-100.00,SW,235,11.0,22.0,22,0.00,,,0.01,,2013-06-14 22:43:00,
2013-06-14 22:51:00,63.0,24.0,-100.00,SW,236,11.0,20.0,22,0.00,,,0.01,,2013-06-14 22:51:00,
2013-06-14 23:22:00,63.0,24.0,-100.00,SW,236,11.0,20.0,22,0.00,,,0.01,,2013-06-14 23:22:00,
2013-06-14 23:33:00,63.0,24.0,-100.00,SW,236,11.0,20.0,22,0.00,,,0.01,,2013-06-14 23:33:00,
2013-06-14 23:43:00,63.0,24.0,-100.00,SW,236,11.0,20.0,22,0.00,,,0.01,,2013-06-14 23:43:00,
2013-06-14 23:51:00,62.0,23.0,-100.00,WSW,247,9.0,17.0,22,0.00,,,0.01,,2013-06-14 23:51:00,